createdAt,value
2022-09-06T00:00:03.427Z,19.48
2022-09-06T00:01:03.622Z,19.46
2022-09-06T00:02:02.658Z,19.44
2022-09-06T00:03:02.862Z,19.47
2022-09-06T00:04:03.134Z,19.46
2022-09-06T00:05:02.854Z,19.45
2022-09-06T00:06:03.202Z,19.47
2022-09-06T00:07:02.726Z,19.50
2022-09-06T00:08:03.337Z,19.50
2022-09-06T00:09:02.849Z,19.50
2022-09-06T00:10:02.730Z,19.49
2022-09-06T00:11:03.341Z,19.49
2022-09-06T00:12:03.265Z,19.49
2022-09-06T00:13:03.116Z,19.49
2022-09-06T00:14:02.979Z,19.50
2022-09-06T00:15:03.542Z,19.50
2022-09-06T00:16:03.436Z,19.50
2022-09-06T00:17:02.396Z,19.49
2022-09-06T00:18:02.959Z,19.46
2022-09-06T00:19:02.501Z,19.44
2022-09-06T00:20:02.401Z,19.43
2022-09-06T00:21:02.983Z,19.42
2022-09-06T00:22:02.695Z,19.41
2022-09-06T00:23:02.701Z,19.38
2022-09-06T00:24:02.672Z,19.39
2022-09-06T00:25:03.237Z,19.42
2022-09-06T00:26:02.839Z,19.45
2022-09-06T00:27:02.726Z,19.47
2022-09-06T00:28:03.290Z,19.46
2022-09-06T00:29:03.213Z,19.47
2022-09-06T00:30:03.112Z,19.47
2022-09-06T00:31:03.133Z,19.47
2022-09-06T00:32:03.061Z,19.46
2022-09-06T00:33:03.625Z,19.53
2022-09-06T00:34:03.327Z,19.62
2022-09-06T00:35:03.164Z,19.65
2022-09-06T00:36:03.682Z,19.63
2022-09-06T00:37:03.248Z,19.64
2022-09-06T00:38:03.541Z,19.60
2022-09-06T00:39:03.383Z,19.57
2022-09-06T00:40:03.464Z,19.56
2022-09-06T00:41:03.417Z,19.53
2022-09-06T00:42:03.116Z,19.53
2022-09-06T00:43:03.104Z,19.54
2022-09-06T00:44:03.359Z,19.56
2022-09-06T00:45:03.297Z,19.57
2022-09-06T00:46:03.546Z,19.51
2022-09-06T00:47:03.206Z,19.48
2022-09-06T00:48:03.157Z,19.51
2022-09-06T00:49:03.224Z,19.55
2022-09-06T00:50:03.565Z,19.59
2022-09-06T00:51:03.473Z,19.62
2022-09-06T00:52:03.334Z,19.68
2022-09-06T00:53:03.497Z,19.70
2022-09-06T00:54:03.502Z,19.76
2022-09-06T00:55:03.845Z,19.77
2022-09-06T00:56:03.331Z,19.76
2022-09-06T00:57:03.046Z,19.74
2022-09-06T00:58:03.446Z,19.77
2022-09-06T00:59:03.133Z,19.77
2022-09-06T01:00:03.028Z,19.79
2022-09-06T01:01:03.132Z,19.79
2022-09-06T01:02:02.314Z,19.79
2022-09-06T01:03:02.179Z,19.78
2022-09-06T01:04:01.983Z,19.78
2022-09-06T01:05:01.961Z,19.78
2022-09-06T01:06:02.535Z,19.78
2022-09-06T01:07:02.251Z,19.79
2022-09-06T01:08:02.203Z,19.83
2022-09-06T01:09:02.098Z,19.84
2022-09-06T01:10:02.046Z,19.82
2022-09-06T01:11:02.015Z,19.78
2022-09-06T01:12:02.672Z,19.81
2022-09-06T01:13:02.743Z,19.82
2022-09-06T01:14:02.730Z,19.83
2022-09-06T01:15:02.647Z,19.85
2022-09-06T01:16:02.691Z,19.84
2022-09-06T01:17:02.698Z,19.81
2022-09-06T01:18:02.900Z,19.78
2022-09-06T01:19:02.746Z,19.77
2022-09-06T01:20:02.590Z,19.78
2022-09-06T01:21:02.444Z,19.83
2022-09-06T01:22:03.057Z,19.82
2022-09-06T01:23:02.933Z,19.82
2022-09-06T01:24:02.809Z,19.82
2022-09-06T01:25:03.383Z,19.83
2022-09-06T01:26:03.128Z,19.82
2022-09-06T01:27:02.922Z,19.84
2022-09-06T01:28:02.781Z,19.85
2022-09-06T01:29:02.495Z,19.84
2022-09-06T01:30:03.040Z,19.83
2022-09-06T01:31:02.610Z,19.86
2022-09-06T01:32:03.116Z,19.90
2022-09-06T01:33:03.229Z,19.90
2022-09-06T01:34:03.243Z,19.94
2022-09-06T01:35:03.133Z,20.00
2022-09-06T01:36:03.068Z,19.99
2022-09-06T01:37:10.934Z,19.98
2022-09-06T01:38:02.802Z,19.98
2022-09-06T01:39:02.378Z,19.97
2022-09-06T01:40:03.137Z,19.98
2022-09-06T01:41:02.799Z,19.99
2022-09-06T01:42:02.498Z,19.98
2022-09-06T01:43:02.360Z,19.94
2022-09-06T01:44:02.225Z,19.91
2022-09-06T01:45:02.149Z,19.90
2022-09-06T01:46:02.737Z,19.91
2022-09-06T01:47:02.661Z,19.90
2022-09-06T01:48:03.266Z,19.88
2022-09-06T01:49:02.879Z,19.87
2022-09-06T01:50:03.245Z,19.85
2022-09-06T01:51:03.138Z,19.85
2022-09-06T01:52:02.626Z,19.85
2022-09-06T01:53:03.137Z,19.83
2022-09-06T01:54:03.109Z,19.82
2022-09-06T01:55:02.979Z,19.83
2022-09-06T01:56:02.840Z,19.84
2022-09-06T01:57:03.386Z,19.84
2022-09-06T01:58:03.258Z,19.83
2022-09-06T01:59:03.120Z,19.84
2022-09-06T02:00:03.674Z,19.86
2022-09-06T02:01:03.514Z,19.89
2022-09-06T02:02:02.141Z,19.87
2022-09-06T02:03:02.024Z,19.83
2022-09-06T02:04:02.557Z,19.84
2022-09-06T02:05:02.654Z,19.84
2022-09-06T02:06:02.433Z,19.84
2022-09-06T02:07:02.034Z,19.82
2022-09-06T02:08:01.906Z,19.81
2022-09-06T02:09:01.734Z,19.81
2022-09-06T02:10:01.657Z,19.80
2022-09-06T02:11:02.201Z,19.78
2022-09-06T02:12:02.490Z,19.85
2022-09-06T02:13:02.337Z,19.90
2022-09-06T02:14:02.206Z,19.97
2022-09-06T02:15:02.141Z,20.00
2022-09-06T02:16:02.075Z,19.95
2022-09-06T02:17:02.537Z,19.93
2022-09-06T02:18:02.927Z,19.90
2022-09-06T02:19:02.799Z,19.89
2022-09-06T02:20:02.854Z,19.86
2022-09-06T02:21:02.822Z,19.88
2022-09-06T02:22:02.490Z,19.88
2022-09-06T02:23:02.104Z,19.84
2022-09-06T02:24:01.972Z,19.78
2022-09-06T02:25:01.912Z,19.72
2022-09-06T02:26:02.438Z,19.69
2022-09-06T02:27:03.005Z,19.71
2022-09-06T02:28:02.816Z,19.78
2022-09-06T02:29:02.805Z,19.84
2022-09-06T02:30:02.682Z,19.87
2022-09-06T02:31:02.967Z,19.90
2022-09-06T02:32:02.783Z,19.91
2022-09-06T02:33:02.738Z,19.95
2022-09-06T02:34:02.579Z,19.95
2022-09-06T02:35:02.720Z,19.97
2022-09-06T02:36:02.669Z,19.95
2022-09-06T02:37:02.361Z,19.96
2022-09-06T02:38:02.152Z,19.95
2022-09-06T02:39:01.777Z,19.91
2022-09-06T02:40:01.762Z,19.88
2022-09-06T02:41:02.363Z,19.86
2022-09-06T02:42:02.565Z,19.86
2022-09-06T02:43:02.526Z,19.83
2022-09-06T02:44:02.368Z,19.84
2022-09-06T02:45:02.235Z,19.91
2022-09-06T02:46:02.432Z,19.96
2022-09-06T02:47:02.980Z,19.99
2022-09-06T02:48:02.863Z,19.97
2022-09-06T02:49:02.748Z,20.00
2022-09-06T02:50:02.593Z,19.98
2022-09-06T02:51:02.444Z,20.02
2022-09-06T02:52:02.104Z,20.03
2022-09-06T02:53:02.557Z,20.02
2022-09-06T02:54:02.413Z,20.01
2022-09-06T02:55:02.418Z,19.99
2022-09-06T02:56:02.361Z,20.02
2022-09-06T02:57:02.905Z,20.00
2022-09-06T02:58:02.440Z,19.97
2022-09-06T02:59:02.544Z,19.98
2022-09-06T03:00:02.415Z,20.00
2022-09-06T03:01:02.363Z,19.99
2022-09-06T03:02:02.519Z,19.98
2022-09-06T03:03:02.742Z,19.99
2022-09-06T03:04:02.712Z,19.96
2022-09-06T03:05:02.650Z,19.95
2022-09-06T03:06:02.746Z,19.93
2022-09-06T03:07:02.900Z,19.94
2022-09-06T03:08:02.916Z,19.96
2022-09-06T03:09:02.875Z,19.96
2022-09-06T03:10:03.113Z,19.96
2022-09-06T03:11:03.059Z,19.94
2022-09-06T03:12:03.072Z,19.92
2022-09-06T03:13:02.939Z,19.92
2022-09-06T03:14:03.483Z,19.91
2022-09-06T03:15:03.155Z,19.90
2022-09-06T03:16:03.225Z,19.89
2022-09-06T03:17:03.897Z,19.91
2022-09-06T03:18:03.275Z,19.93
2022-09-06T03:19:03.310Z,19.96
2022-09-06T03:20:03.271Z,19.97
2022-09-06T03:21:03.358Z,19.96
2022-09-06T03:22:03.382Z,19.93
2022-09-06T03:23:03.591Z,19.91
2022-09-06T03:24:03.493Z,19.89
2022-09-06T03:25:03.278Z,19.90
2022-09-06T03:26:03.722Z,19.90
2022-09-06T03:27:03.163Z,19.86
2022-09-06T03:28:03.011Z,19.80
2022-09-06T03:29:02.971Z,19.78
2022-09-06T03:30:02.934Z,19.76
2022-09-06T03:31:03.152Z,19.76
2022-09-06T03:32:03.011Z,19.73
2022-09-06T03:33:03.376Z,19.74
2022-09-06T03:34:03.302Z,19.72
2022-09-06T03:35:03.241Z,19.70
2022-09-06T03:36:03.099Z,19.67
2022-09-06T03:37:03.166Z,19.68
2022-09-06T03:38:03.551Z,19.69
2022-09-06T03:39:03.335Z,19.72
2022-09-06T03:40:03.543Z,19.78
2022-09-06T03:41:03.205Z,19.81
2022-09-06T03:42:03.130Z,19.79
2022-09-06T03:43:03.722Z,19.72
2022-09-06T03:44:03.627Z,19.71
2022-09-06T03:45:03.705Z,19.65
2022-09-06T03:46:03.361Z,19.59
2022-09-06T03:47:03.296Z,19.57
2022-09-06T03:48:03.636Z,19.51
2022-09-06T03:49:03.637Z,19.43
2022-09-06T03:50:03.545Z,19.40
2022-09-06T03:51:03.494Z,19.41
2022-09-06T03:52:03.406Z,19.40
2022-09-06T03:53:04.010Z,19.45
2022-09-06T03:54:03.409Z,19.44
2022-09-06T03:55:03.360Z,19.38
2022-09-06T03:56:03.631Z,19.33
2022-09-06T03:57:02.635Z,19.29
2022-09-06T03:58:02.978Z,19.26
2022-09-06T03:59:02.903Z,19.24
2022-09-06T04:00:02.790Z,19.25
2022-09-06T04:01:02.655Z,19.25
2022-09-06T04:02:01.805Z,19.25
2022-09-06T04:03:02.041Z,19.23
2022-09-06T04:04:01.985Z,19.22
2022-09-06T04:05:01.872Z,19.18
2022-09-06T04:06:01.873Z,19.17
2022-09-06T04:07:02.010Z,19.10
2022-09-06T04:08:02.013Z,19.03
2022-09-06T04:09:02.195Z,18.99
2022-09-06T04:10:02.087Z,18.98
2022-09-06T04:11:01.967Z,18.95
2022-09-06T04:12:02.527Z,18.94
2022-09-06T04:13:02.410Z,18.94
2022-09-06T04:14:02.432Z,18.93
2022-09-06T04:15:02.450Z,18.91
2022-09-06T04:16:02.832Z,18.89
2022-09-06T04:17:01.809Z,18.84
2022-09-06T04:18:04.002Z,18.84
2022-09-06T04:19:01.955Z,18.88
2022-09-06T04:20:01.653Z,18.85
2022-09-06T04:21:02.266Z,18.84
2022-09-06T04:22:02.865Z,18.79
2022-09-06T04:23:02.644Z,18.76
2022-09-06T04:24:02.553Z,18.70
2022-09-06T04:25:02.465Z,18.67
2022-09-06T04:26:02.425Z,18.64
2022-09-06T04:27:02.574Z,18.57
2022-09-06T04:28:02.496Z,18.55
2022-09-06T04:29:02.320Z,18.50
2022-09-06T04:30:02.370Z,18.47
2022-09-06T04:31:04.939Z,18.45
2022-09-06T04:32:02.726Z,18.45
2022-09-06T04:33:02.763Z,18.46
2022-09-06T04:34:02.805Z,18.45
2022-09-06T04:35:02.769Z,18.48
2022-09-06T04:36:02.751Z,18.46
2022-09-06T04:37:02.819Z,18.41
2022-09-06T04:38:02.601Z,18.38
2022-09-06T04:39:02.598Z,18.37
2022-09-06T04:40:02.626Z,18.38
2022-09-06T04:41:02.621Z,18.36
2022-09-06T04:42:02.389Z,18.31
2022-09-06T04:43:02.442Z,18.29
2022-09-06T04:44:02.423Z,18.27
2022-09-06T04:45:02.411Z,18.26
2022-09-06T04:46:02.438Z,18.24
2022-09-06T04:47:07.447Z,18.23
2022-09-06T04:48:03.009Z,18.21
2022-09-06T04:49:03.127Z,18.18
2022-09-06T04:50:03.144Z,18.18
2022-09-06T04:51:03.179Z,18.17
2022-09-06T04:52:02.247Z,18.14
2022-09-06T04:53:02.265Z,18.13
2022-09-06T04:54:02.261Z,18.11
2022-09-06T04:55:02.134Z,18.08
2022-09-06T04:56:02.160Z,18.06
2022-09-06T04:57:02.882Z,18.03
2022-09-06T04:58:02.557Z,17.99
2022-09-06T04:59:02.673Z,17.96
2022-09-06T05:00:02.833Z,17.91
2022-09-06T05:01:03.205Z,17.88
2022-09-06T05:02:03.044Z,17.86
2022-09-06T05:03:02.865Z,17.84
2022-09-06T05:04:02.996Z,17.81
2022-09-06T05:05:03.088Z,17.84
2022-09-06T05:06:02.711Z,17.91
2022-09-06T05:07:03.569Z,17.94
2022-09-06T05:08:03.677Z,17.88
2022-09-06T05:09:03.477Z,17.81
2022-09-06T05:10:03.110Z,17.76
2022-09-06T05:11:03.134Z,17.72
2022-09-06T05:12:03.276Z,17.70
2022-09-06T05:13:03.404Z,17.68
2022-09-06T05:14:03.184Z,17.67
2022-09-06T05:15:03.217Z,17.70
2022-09-06T05:16:02.810Z,17.73
2022-09-06T05:17:03.737Z,17.73
2022-09-06T05:18:03.450Z,17.72
2022-09-06T05:19:03.592Z,17.71
2022-09-06T05:20:03.522Z,17.73
2022-09-06T05:21:03.218Z,17.73
2022-09-06T05:22:03.060Z,17.75
2022-09-06T05:23:03.023Z,17.73
2022-09-06T05:24:03.133Z,17.67
2022-09-06T05:25:02.929Z,17.64
2022-09-06T05:26:02.950Z,17.65
2022-09-06T05:27:03.581Z,17.69
2022-09-06T05:28:03.717Z,17.72
2022-09-06T05:29:03.447Z,17.70
2022-09-06T05:30:03.452Z,17.65
2022-09-06T05:31:03.745Z,17.62
2022-09-06T05:32:02.778Z,17.60
2022-09-06T05:33:02.901Z,17.57
2022-09-06T05:34:02.879Z,17.54
2022-09-06T05:35:02.599Z,17.55
2022-09-06T05:36:02.686Z,17.53
2022-09-06T05:37:03.336Z,17.54
2022-09-06T05:38:02.950Z,17.53
2022-09-06T05:39:03.465Z,17.53
2022-09-06T05:40:03.476Z,17.55
2022-09-06T05:41:03.422Z,17.57
2022-09-06T05:42:03.483Z,17.57
2022-09-06T05:43:03.524Z,17.56
2022-09-06T05:44:03.357Z,17.56
2022-09-06T05:45:03.431Z,17.53
2022-09-06T05:46:03.556Z,17.50
2022-09-06T05:47:03.104Z,17.49
2022-09-06T05:48:03.020Z,17.47
2022-09-06T05:49:03.102Z,17.44
2022-09-06T05:50:03.081Z,17.44
2022-09-06T05:51:02.951Z,17.43
2022-09-06T05:52:03.734Z,17.43
2022-09-06T05:53:03.492Z,17.42
2022-09-06T05:54:03.548Z,17.43
2022-09-06T05:55:03.154Z,17.46
2022-09-06T05:56:03.616Z,17.53
2022-09-06T05:57:02.785Z,17.56
2022-09-06T05:58:03.017Z,17.55
2022-09-06T05:59:03.123Z,17.55
2022-09-06T06:00:03.394Z,17.54
2022-09-06T06:01:03.393Z,17.53
2022-09-06T06:03:02.485Z,17.57
2022-09-06T06:04:02.507Z,17.56
2022-09-06T06:05:02.699Z,17.57
2022-09-06T06:06:02.498Z,17.58
2022-09-06T06:07:02.724Z,17.61
2022-09-06T06:08:02.617Z,17.63
2022-09-06T06:09:03.081Z,17.68
2022-09-06T06:10:03.168Z,17.74
2022-09-06T06:11:02.984Z,17.80
2022-09-06T06:12:03.056Z,17.85
2022-09-06T06:13:03.200Z,17.92
2022-09-06T06:14:03.410Z,18.03
2022-09-06T06:15:03.500Z,18.12
2022-09-06T06:16:03.584Z,18.19
2022-09-06T06:17:02.634Z,18.24
2022-09-06T06:18:02.578Z,18.29
2022-09-06T06:19:02.710Z,18.35
2022-09-06T06:20:02.785Z,18.43
2022-09-06T06:21:02.547Z,18.49
2022-09-06T06:22:03.290Z,18.57
2022-09-06T06:23:03.467Z,18.68
2022-09-06T06:24:03.639Z,18.80
2022-09-06T06:25:03.821Z,18.93
2022-09-06T06:26:03.215Z,19.06
2022-09-06T06:27:02.442Z,19.18
2022-09-06T06:28:02.895Z,19.31
2022-09-06T06:29:02.712Z,19.44
2022-09-06T06:30:02.433Z,19.53
2022-09-06T06:31:02.524Z,19.64
2022-09-06T06:32:02.569Z,19.73
2022-09-06T06:33:02.898Z,19.81
2022-09-06T06:34:02.913Z,19.90
2022-09-06T06:35:02.464Z,19.97
2022-09-06T06:36:02.625Z,20.06
2022-09-06T06:37:02.734Z,20.12
2022-09-06T06:38:02.810Z,20.18
2022-09-06T06:39:02.969Z,20.23
2022-09-06T06:40:03.021Z,20.32
2022-09-06T06:41:06.542Z,20.38
2022-09-06T06:42:03.126Z,20.44
2022-09-06T06:43:03.249Z,20.48
2022-09-06T06:44:03.231Z,20.53
2022-09-06T06:45:03.373Z,20.57
2022-09-06T06:46:03.604Z,20.65
2022-09-06T06:47:02.643Z,20.74
2022-09-06T06:48:03.028Z,20.82
2022-09-06T06:49:02.822Z,20.87
2022-09-06T06:50:02.901Z,20.95
2022-09-06T06:51:02.894Z,20.98
2022-09-06T06:52:02.993Z,21.03
2022-09-06T06:53:03.159Z,21.09
2022-09-06T06:54:03.169Z,21.15
2022-09-06T06:55:03.346Z,21.19
2022-09-06T06:56:03.398Z,21.26
2022-09-06T06:57:03.294Z,21.33
2022-09-06T06:58:03.429Z,21.38
2022-09-06T06:59:03.388Z,21.45
2022-09-06T07:00:03.075Z,21.52
2022-09-06T07:01:03.424Z,21.60
2022-09-06T07:02:03.130Z,21.66
2022-09-06T07:03:03.290Z,21.73
2022-09-06T07:04:02.818Z,21.81
2022-09-06T07:05:02.979Z,21.89
2022-09-06T07:08:02.817Z,22.10
2022-09-06T07:09:02.611Z,22.18
2022-09-06T07:11:02.746Z,22.32
2022-09-06T07:12:03.034Z,22.41
2022-09-06T07:13:03.182Z,22.49
2022-09-06T07:14:03.026Z,22.56
2022-09-06T07:15:02.910Z,22.64
2022-09-06T07:16:03.042Z,22.71
2022-09-06T07:17:07.410Z,22.81
2022-09-06T07:18:03.450Z,22.88
2022-09-06T07:19:03.437Z,22.96
2022-09-06T07:20:18.689Z,23.04
2022-09-06T07:22:04.612Z,23.17
2022-09-06T07:25:02.601Z,23.34
2022-09-06T07:26:02.584Z,23.38
2022-09-06T07:28:05.910Z,23.47
2022-09-06T07:29:02.789Z,23.56
2022-09-06T07:30:02.959Z,23.64
2022-09-06T07:31:02.986Z,23.71
2022-09-06T07:33:02.919Z,23.84
2022-09-06T07:34:02.953Z,23.90
2022-09-06T07:35:02.611Z,24.00
2022-09-06T07:36:02.672Z,24.05
2022-09-06T07:37:02.439Z,24.11
2022-09-06T07:38:02.435Z,24.19
2022-09-06T07:39:02.457Z,24.28
2022-09-06T07:40:02.654Z,24.39
2022-09-06T07:41:02.440Z,24.50
2022-09-06T07:42:02.594Z,24.57
2022-09-06T07:43:02.763Z,24.66
2022-09-06T07:44:02.667Z,24.74
2022-09-06T07:45:02.831Z,24.84
2022-09-06T07:46:02.690Z,24.90
2022-09-06T07:48:02.322Z,25.07
2022-09-06T07:49:02.462Z,25.14
2022-09-06T07:51:02.614Z,25.24
2022-09-06T07:53:12.949Z,25.38
2022-09-06T07:54:26.376Z,25.45
2022-09-06T07:55:03.154Z,25.48
2022-09-06T07:56:03.032Z,25.51
2022-09-06T07:57:03.171Z,25.55
2022-09-06T07:58:02.779Z,25.58
2022-09-06T07:59:03.193Z,25.60
2022-09-06T08:00:03.167Z,25.63
2022-09-06T08:01:03.453Z,25.71
2022-09-06T08:02:03.414Z,25.73
2022-09-06T08:03:02.910Z,25.80
2022-09-06T08:04:03.075Z,25.76
2022-09-06T08:05:03.241Z,25.75
2022-09-06T08:06:10.900Z,25.81
2022-09-06T08:09:03.172Z,26.01
2022-09-06T08:10:03.372Z,26.04
2022-09-06T08:11:03.387Z,26.07
2022-09-06T08:12:03.216Z,26.15
2022-09-06T08:13:03.300Z,26.21
2022-09-06T08:14:02.767Z,26.28
2022-09-06T08:15:02.787Z,26.37
2022-09-06T08:16:02.985Z,26.45
2022-09-06T08:17:02.913Z,26.48
2022-09-06T08:18:03.005Z,26.50
2022-09-06T08:19:02.508Z,26.51
2022-09-06T08:20:02.554Z,26.60
2022-09-06T08:21:02.583Z,26.65
2022-09-06T08:22:03.429Z,26.62
2022-09-06T08:23:03.533Z,26.62
2022-09-06T08:24:03.356Z,26.68
2022-09-06T08:25:03.424Z,26.72
2022-09-06T08:26:03.388Z,26.78
2022-09-06T08:27:03.834Z,26.80
2022-09-06T08:28:03.948Z,26.82
2022-09-06T08:29:03.671Z,26.86
2022-09-06T08:30:03.949Z,26.89
2022-09-06T08:31:03.973Z,26.97
2022-09-06T08:32:03.098Z,27.02
2022-09-06T08:33:02.732Z,27.03
2022-09-06T08:34:02.727Z,27.04
2022-09-06T08:35:02.855Z,27.03
2022-09-06T08:36:02.946Z,27.03
2022-09-06T08:37:03.684Z,27.08
2022-09-06T08:38:03.574Z,27.14
2022-09-06T08:39:03.691Z,27.28
2022-09-06T08:40:03.857Z,27.42
2022-09-06T08:41:03.448Z,27.56
2022-09-06T08:42:03.238Z,27.69
2022-09-06T08:43:03.005Z,27.76
2022-09-06T08:45:03.303Z,27.88
2022-09-06T08:46:03.012Z,27.95
2022-09-06T08:47:03.809Z,28.01
2022-09-06T08:48:03.695Z,28.04
2022-09-06T08:49:03.282Z,28.07
2022-09-06T08:50:03.458Z,28.14
2022-09-06T08:51:03.542Z,28.22
2022-09-06T08:52:02.714Z,28.23
2022-09-06T08:53:16.643Z,28.35
2022-09-06T08:54:03.309Z,28.42
2022-09-06T08:55:02.766Z,28.49
2022-09-06T08:56:02.860Z,28.55
2022-09-06T08:57:03.020Z,28.60
2022-09-06T08:58:03.543Z,28.64
2022-09-06T08:59:03.059Z,28.72
2022-09-06T09:00:03.108Z,28.69
2022-09-06T09:01:03.338Z,28.71
2022-09-06T09:02:02.222Z,28.72
2022-09-06T09:03:02.397Z,28.82
2022-09-06T09:04:02.539Z,28.89
2022-09-06T09:05:02.659Z,28.97
2022-09-06T09:06:02.786Z,28.99
2022-09-06T09:07:02.304Z,28.98
2022-09-06T09:08:02.358Z,28.94
2022-09-06T09:09:02.322Z,29.01
2022-09-06T09:10:02.449Z,29.14
2022-09-06T09:11:02.294Z,29.21
2022-09-06T09:12:02.406Z,29.32
2022-09-06T09:13:02.443Z,29.34
2022-09-06T09:14:02.557Z,29.33
2022-09-06T09:15:02.623Z,29.35
2022-09-06T09:16:02.620Z,29.31
2022-09-06T09:17:02.623Z,29.35
2022-09-06T09:18:02.923Z,29.43
2022-09-06T09:19:02.667Z,29.47
2022-09-06T09:20:02.810Z,29.49
2022-09-06T09:21:02.937Z,29.60
2022-09-06T09:22:02.982Z,29.66
2022-09-06T09:23:03.044Z,29.67
2022-09-06T09:24:03.192Z,29.66
2022-09-06T09:25:03.340Z,29.60
2022-09-06T09:26:03.612Z,29.68
2022-09-06T09:27:02.546Z,29.74
2022-09-06T09:28:02.613Z,29.84
2022-09-06T09:29:02.731Z,29.92
2022-09-06T09:31:03.052Z,30.06
2022-09-06T09:32:02.998Z,30.14
2022-09-06T09:33:03.320Z,30.14
2022-09-06T09:34:03.529Z,30.12
2022-09-06T09:35:03.415Z,30.15
2022-09-06T09:36:03.385Z,30.19
2022-09-06T09:38:07.826Z,30.29
2022-09-06T09:39:02.801Z,30.38
2022-09-06T09:40:02.972Z,30.39
2022-09-06T09:41:02.964Z,30.42
2022-09-06T09:42:03.233Z,30.39
2022-09-06T09:43:03.194Z,30.51
2022-09-06T09:44:04.956Z,30.63
2022-09-06T09:45:03.381Z,30.72
2022-09-06T09:46:03.494Z,30.72
2022-09-06T09:47:02.727Z,30.79
2022-09-06T09:48:02.625Z,30.83
2022-09-06T09:49:02.585Z,30.79
2022-09-06T09:50:02.704Z,30.81
2022-09-06T09:51:02.537Z,30.77
2022-09-06T09:52:03.255Z,30.70
2022-09-06T09:53:03.366Z,30.63
2022-09-06T09:54:03.517Z,30.60
2022-09-06T09:55:03.652Z,30.66
2022-09-06T09:56:03.129Z,30.74
2022-09-06T09:57:04.595Z,30.81
2022-09-06T09:58:02.721Z,30.81
2022-09-06T09:59:02.813Z,30.84
2022-09-06T10:00:03.432Z,30.86
2022-09-06T10:01:03.360Z,30.94
2022-09-06T10:02:03.295Z,30.91
2022-09-06T10:03:03.715Z,30.97
2022-09-06T10:05:03.652Z,31.02
2022-09-06T10:06:03.892Z,31.08
2022-09-06T10:07:10.444Z,31.12
2022-09-06T10:08:03.045Z,31.12
2022-09-06T10:09:03.178Z,31.14
2022-09-06T10:10:02.995Z,31.12
2022-09-06T10:11:02.827Z,31.16
2022-09-06T10:12:02.604Z,31.23
2022-09-06T10:13:02.844Z,31.37
2022-09-06T10:14:02.685Z,31.46
2022-09-06T10:15:06.900Z,31.50
2022-09-06T10:16:02.769Z,31.60
2022-09-06T10:17:02.855Z,31.67
2022-09-06T10:18:03.100Z,31.63
2022-09-06T10:19:02.847Z,31.60
2022-09-06T10:20:02.795Z,31.61
2022-09-06T10:21:02.963Z,31.61
2022-09-06T10:22:03.012Z,31.63
2022-09-06T10:23:03.150Z,31.72
2022-09-06T10:24:32.912Z,31.69
2022-09-06T10:25:03.328Z,31.75
2022-09-06T10:26:03.118Z,31.82
2022-09-06T10:27:03.183Z,31.91
2022-09-06T10:28:10.983Z,31.92
2022-09-06T10:29:03.091Z,31.96
2022-09-06T10:30:03.136Z,31.95
2022-09-06T10:31:03.316Z,31.91
2022-09-06T10:32:03.351Z,31.85
2022-09-06T10:33:03.343Z,31.85
2022-09-06T10:34:03.353Z,31.88
2022-09-06T10:35:03.103Z,31.86
2022-09-06T10:36:03.246Z,31.85
2022-09-06T10:37:03.036Z,31.95
2022-09-06T10:38:02.701Z,32.01
2022-09-06T10:39:04.102Z,32.02
2022-09-06T10:40:03.124Z,31.99
2022-09-06T10:41:02.841Z,32.01
2022-09-06T10:42:03.665Z,32.03
2022-09-06T10:43:03.763Z,32.05
2022-09-06T10:44:03.735Z,32.10
2022-09-06T10:45:03.879Z,32.16
2022-09-06T10:46:03.607Z,32.18
2022-09-06T10:47:03.389Z,32.18
2022-09-06T10:48:03.130Z,32.17
2022-09-06T10:49:03.223Z,32.15
2022-09-06T10:50:03.236Z,32.12
2022-09-06T10:51:03.250Z,32.20
2022-09-06T10:52:03.646Z,32.24
2022-09-06T10:53:03.739Z,32.26
2022-09-06T10:54:03.739Z,32.31
2022-09-06T10:55:03.863Z,32.30
2022-09-06T10:56:03.698Z,32.29
2022-09-06T10:57:03.656Z,32.31
2022-09-06T10:58:19.645Z,32.38
2022-09-06T11:00:03.235Z,32.50
2022-09-06T11:01:03.486Z,32.56
2022-09-06T11:02:02.942Z,32.59
2022-09-06T11:04:06.806Z,32.61
2022-09-06T11:06:02.470Z,32.53
2022-09-06T11:07:03.362Z,32.58
2022-09-06T11:09:02.917Z,32.68
2022-09-06T11:10:02.953Z,32.73
2022-09-06T11:11:02.917Z,32.73
2022-09-06T11:12:02.769Z,32.73
2022-09-06T11:13:02.258Z,32.77
2022-09-06T11:14:05.558Z,32.82
2022-09-06T11:15:02.432Z,32.79
2022-09-06T11:16:02.624Z,32.79
2022-09-06T11:17:03.297Z,32.85
2022-09-06T11:18:03.077Z,32.94
2022-09-06T11:19:03.047Z,32.96
2022-09-06T11:20:02.841Z,32.98
2022-09-06T11:21:03.369Z,32.91
2022-09-06T11:22:02.355Z,32.90
2022-09-06T11:23:03.005Z,32.93
2022-09-06T11:24:02.880Z,32.93
2022-09-06T11:25:02.872Z,32.90
2022-09-06T11:26:03.016Z,32.97
2022-09-06T11:27:02.932Z,32.97
2022-09-06T11:28:03.546Z,33.03
2022-09-06T11:29:03.307Z,33.11
2022-09-06T11:30:03.273Z,33.20
2022-09-06T11:31:03.447Z,33.21
2022-09-06T11:32:18.634Z,33.19
2022-09-06T11:33:03.092Z,33.26
2022-09-06T11:34:03.335Z,33.36
2022-09-06T11:35:03.489Z,33.42
2022-09-06T11:36:03.559Z,33.51
2022-09-06T11:37:03.526Z,33.57
2022-09-06T11:38:02.587Z,33.68
2022-09-06T11:39:02.686Z,33.77
2022-09-06T11:41:02.828Z,33.96
2022-09-06T11:42:02.962Z,34.05
2022-09-06T11:43:03.721Z,34.14
2022-09-06T11:44:03.657Z,34.12
2022-09-06T11:45:03.153Z,34.06
2022-09-06T11:46:03.298Z,33.99
2022-09-06T11:47:03.450Z,33.83
2022-09-06T11:48:03.233Z,33.73
2022-09-06T11:49:02.927Z,33.78
2022-09-06T11:50:03.091Z,33.89
2022-09-06T11:51:03.140Z,33.98
2022-09-06T11:52:02.863Z,34.08
2022-09-06T11:53:03.718Z,34.15
2022-09-06T11:54:03.789Z,34.18
2022-09-06T11:55:03.275Z,34.23
2022-09-06T11:56:03.425Z,34.28
2022-09-06T11:57:03.527Z,34.37
2022-09-06T11:58:03.319Z,34.43
2022-09-06T11:59:03.461Z,34.42
2022-09-06T12:00:03.275Z,34.54
2022-09-06T12:01:03.562Z,34.66
2022-09-06T12:02:03.450Z,34.73
2022-09-06T12:05:02.264Z,34.87
2022-09-06T12:06:02.477Z,34.93
2022-09-06T12:07:02.672Z,34.98
2022-09-06T12:08:02.737Z,34.91
2022-09-06T12:09:02.802Z,34.84
2022-09-06T12:10:02.467Z,34.82
2022-09-06T12:11:02.467Z,34.76
2022-09-06T12:12:02.598Z,34.67
2022-09-06T12:13:02.895Z,34.56
2022-09-06T12:14:03.010Z,34.53
2022-09-06T12:15:03.301Z,34.47
2022-09-06T12:16:03.627Z,34.34
2022-09-06T12:17:03.401Z,34.25
2022-09-06T12:18:03.617Z,34.22
2022-09-06T12:19:03.134Z,34.07
2022-09-06T12:20:03.650Z,33.93
2022-09-06T12:21:03.388Z,33.79
2022-09-06T12:22:03.491Z,33.60
2022-09-06T12:23:03.532Z,33.46
2022-09-06T12:24:03.650Z,33.34
2022-09-06T12:25:03.639Z,33.20
2022-09-06T12:26:03.182Z,33.03
2022-09-06T12:27:03.349Z,32.88
2022-09-06T12:28:03.152Z,32.77
2022-09-06T12:29:03.279Z,32.70
2022-09-06T12:30:03.089Z,32.74
2022-09-06T12:31:03.358Z,32.80
2022-09-06T12:32:03.031Z,32.88
2022-09-06T12:33:03.861Z,32.78
2022-09-06T12:34:03.673Z,32.68
2022-09-06T12:36:04.680Z,32.53
2022-09-06T12:37:03.422Z,32.48
2022-09-06T12:38:03.302Z,32.49
2022-09-06T12:39:03.067Z,32.47
2022-09-06T12:40:02.884Z,32.41
2022-09-06T12:41:03.128Z,32.27
2022-09-06T12:42:03.184Z,32.12
2022-09-06T12:43:03.405Z,32.01
2022-09-06T12:44:03.584Z,31.92
2022-09-06T12:45:03.759Z,31.87
2022-09-06T12:46:03.506Z,31.85
2022-09-06T12:47:03.422Z,31.86
2022-09-06T12:48:02.817Z,31.87
2022-09-06T12:49:03.118Z,31.90
2022-09-06T12:50:03.410Z,31.84
2022-09-06T12:51:02.643Z,31.74
2022-09-06T12:52:03.263Z,31.62
2022-09-06T12:53:03.535Z,31.52
2022-09-06T12:54:03.659Z,31.45
2022-09-06T12:55:03.709Z,31.43
2022-09-06T12:56:03.221Z,31.38
2022-09-06T12:57:03.573Z,31.42
2022-09-06T12:58:03.108Z,31.49
2022-09-06T12:59:03.327Z,31.57
2022-09-06T13:00:03.178Z,31.63
2022-09-06T13:01:03.333Z,31.71
2022-09-06T13:02:03.547Z,31.81
2022-09-06T13:03:02.926Z,31.91
2022-09-06T13:04:03.139Z,32.02
2022-09-06T13:05:03.262Z,32.20
2022-09-06T13:06:03.343Z,32.32
2022-09-06T13:07:02.820Z,32.47
2022-09-06T13:08:02.419Z,32.63
2022-09-06T13:09:02.071Z,32.75
2022-09-06T13:10:02.306Z,32.80
2022-09-06T13:11:01.936Z,32.90
2022-09-06T13:12:02.592Z,33.06
2022-09-06T13:13:02.480Z,33.19
2022-09-06T13:14:02.684Z,33.34
2022-09-06T13:15:02.853Z,33.43
2022-09-06T13:16:02.706Z,33.57
2022-09-06T13:17:02.724Z,33.66
2022-09-06T13:18:03.054Z,33.69